sensor_id;sensor_type;location;lat;lon;timestamp;P1;durP1;ratioP1;P2;durP2;ratioP2
70169;SDS011;57543;45.442;9.212;2023-06-24T00:00:48;7.13;;;3.73;;
70169;SDS011;57543;45.442;9.212;2023-06-24T00:03:52;5.72;;;3.58;;
70169;SDS011;57543;45.442;9.212;2023-06-24T00:06:57;7.15;;;3.75;;
70169;SDS011;57543;45.442;9.212;2023-06-24T00:10:02;6.93;;;3.40;;
70169;SDS011;57543;45.442;9.212;2023-06-24T00:13:07;5.88;;;3.38;;
70169;SDS011;57543;45.442;9.212;2023-06-24T00:16:11;7.10;;;3.47;;
70169;SDS011;57543;45.442;9.212;2023-06-24T00:19:18;7.93;;;3.72;;
70169;SDS011;57543;45.442;9.212;2023-06-24T00:22:22;6.53;;;3.45;;
70169;SDS011;57543;45.442;9.212;2023-06-24T00:25:26;5.40;;;3.20;;
70169;SDS011;57543;45.442;9.212;2023-06-24T00:28:30;7.85;;;3.38;;
70169;SDS011;57543;45.442;9.212;2023-06-24T00:31:33;5.70;;;3.60;;
70169;SDS011;57543;45.442;9.212;2023-06-24T00:34:37;5.20;;;2.75;;
70169;SDS011;57543;45.442;9.212;2023-06-24T00:37:40;5.90;;;3.10;;
70169;SDS011;57543;45.442;9.212;2023-06-24T00:40:45;5.72;;;3.22;;
70169;SDS011;57543;45.442;9.212;2023-06-24T00:43:49;7.63;;;3.33;;
70169;SDS011;57543;45.442;9.212;2023-06-24T00:46:53;6.90;;;3.33;;
70169;SDS011;57543;45.442;9.212;2023-06-24T00:49:57;5.40;;;3.13;;
70169;SDS011;57543;45.442;9.212;2023-06-24T00:53:01;5.72;;;3.10;;
70169;SDS011;57543;45.442;9.212;2023-06-24T00:56:04;5.30;;;3.05;;
70169;SDS011;57543;45.442;9.212;2023-06-24T00:59:08;5.60;;;3.42;;
70169;SDS011;57543;45.442;9.212;2023-06-24T01:02:16;6.37;;;3.43;;
70169;SDS011;57543;45.442;9.212;2023-06-24T01:05:19;5.88;;;3.42;;
70169;SDS011;57543;45.442;9.212;2023-06-24T01:08:27;6.80;;;4.07;;
70169;SDS011;57543;45.442;9.212;2023-06-24T01:11:31;6.28;;;3.60;;
70169;SDS011;57543;45.442;9.212;2023-06-24T01:14:35;9.07;;;3.45;;
70169;SDS011;57543;45.442;9.212;2023-06-24T01:17:50;6.00;;;3.43;;
70169;SDS011;57543;45.442;9.212;2023-06-24T01:21:08;6.95;;;4.00;;
70169;SDS011;57543;45.442;9.212;2023-06-24T01:24:38;7.53;;;4.00;;
70169;SDS011;57543;45.442;9.212;2023-06-24T01:28:04;6.60;;;3.92;;
70169;SDS011;57543;45.442;9.212;2023-06-24T01:34:39;6.80;;;3.77;;
70169;SDS011;57543;45.442;9.212;2023-06-24T01:37:51;7.28;;;4.03;;
70169;SDS011;57543;45.442;9.212;2023-06-24T01:40:57;8.52;;;4.50;;
70169;SDS011;57543;45.442;9.212;2023-06-24T01:44:03;8.68;;;4.28;;
70169;SDS011;57543;45.442;9.212;2023-06-24T01:47:07;7.43;;;4.20;;
70169;SDS011;57543;45.442;9.212;2023-06-24T01:50:14;7.73;;;3.90;;
70169;SDS011;57543;45.442;9.212;2023-06-24T01:53:22;6.75;;;3.90;;
70169;SDS011;57543;45.442;9.212;2023-06-24T01:56:27;10.57;;;4.43;;
70169;SDS011;57543;45.442;9.212;2023-06-24T01:59:34;7.57;;;4.00;;
70169;SDS011;57543;45.442;9.212;2023-06-24T02:02:41;8.15;;;3.90;;
70169;SDS011;57543;45.442;9.212;2023-06-24T02:05:46;8.43;;;3.87;;
70169;SDS011;57543;45.442;9.212;2023-06-24T02:08:51;7.60;;;4.05;;
70169;SDS011;57543;45.442;9.212;2023-06-24T02:11:57;7.28;;;3.67;;
70169;SDS011;57543;45.442;9.212;2023-06-24T02:15:02;6.57;;;4.22;;
70169;SDS011;57543;45.442;9.212;2023-06-24T02:18:09;6.20;;;3.78;;
70169;SDS011;57543;45.442;9.212;2023-06-24T02:21:16;8.13;;;4.07;;
70169;SDS011;57543;45.442;9.212;2023-06-24T02:24:22;7.25;;;3.88;;
70169;SDS011;57543;45.442;9.212;2023-06-24T02:27:26;7.47;;;3.75;;
70169;SDS011;57543;45.442;9.212;2023-06-24T02:30:32;7.38;;;3.58;;
70169;SDS011;57543;45.442;9.212;2023-06-24T02:33:38;7.40;;;3.60;;
70169;SDS011;57543;45.442;9.212;2023-06-24T02:36:42;7.43;;;4.00;;
70169;SDS011;57543;45.442;9.212;2023-06-24T02:39:46;7.50;;;3.85;;
70169;SDS011;57543;45.442;9.212;2023-06-24T02:42:50;6.72;;;3.97;;
70169;SDS011;57543;45.442;9.212;2023-06-24T02:45:54;6.90;;;4.13;;
70169;SDS011;57543;45.442;9.212;2023-06-24T02:48:58;7.38;;;3.92;;
70169;SDS011;57543;45.442;9.212;2023-06-24T02:52:02;6.33;;;3.40;;
70169;SDS011;57543;45.442;9.212;2023-06-24T02:55:07;6.07;;;3.63;;
70169;SDS011;57543;45.442;9.212;2023-06-24T02:58:26;8.30;;;3.60;;
70169;SDS011;57543;45.442;9.212;2023-06-24T03:01:47;7.10;;;3.50;;
70169;SDS011;57543;45.442;9.212;2023-06-24T03:04:51;9.48;;;4.05;;
70169;SDS011;57543;45.442;9.212;2023-06-24T03:07:56;6.93;;;3.63;;
70169;SDS011;57543;45.442;9.212;2023-06-24T03:11:00;8.48;;;3.60;;
70169;SDS011;57543;45.442;9.212;2023-06-24T03:14:10;5.93;;;3.35;;
70169;SDS011;57543;45.442;9.212;2023-06-24T03:17:19;7.18;;;3.42;;
70169;SDS011;57543;45.442;9.212;2023-06-24T03:20:23;6.90;;;3.35;;
70169;SDS011;57543;45.442;9.212;2023-06-24T03:23:27;5.97;;;3.20;;
70169;SDS011;57543;45.442;9.212;2023-06-24T03:26:32;6.20;;;3.70;;
70169;SDS011;57543;45.442;9.212;2023-06-24T03:29:36;6.55;;;3.30;;
70169;SDS011;57543;45.442;9.212;2023-06-24T03:32:47;5.80;;;3.10;;
70169;SDS011;57543;45.442;9.212;2023-06-24T03:35:52;6.75;;;3.40;;
70169;SDS011;57543;45.442;9.212;2023-06-24T03:39:00;5.60;;;3.37;;
70169;SDS011;57543;45.442;9.212;2023-06-24T03:42:04;6.75;;;3.40;;
70169;SDS011;57543;45.442;9.212;2023-06-24T03:45:08;6.20;;;3.35;;
70169;SDS011;57543;45.442;9.212;2023-06-24T03:48:12;7.18;;;3.20;;
70169;SDS011;57543;45.442;9.212;2023-06-24T03:51:16;7.03;;;3.38;;
70169;SDS011;57543;45.442;9.212;2023-06-24T03:54:20;5.77;;;3.43;;
70169;SDS011;57543;45.442;9.212;2023-06-24T03:57:25;5.35;;;3.20;;
70169;SDS011;57543;45.442;9.212;2023-06-24T04:00:28;7.18;;;3.80;;
70169;SDS011;57543;45.442;9.212;2023-06-24T04:03:31;6.22;;;3.20;;
70169;SDS011;57543;45.442;9.212;2023-06-24T04:06:37;5.43;;;3.05;;
70169;SDS011;57543;45.442;9.212;2023-06-24T04:09:41;6.07;;;3.10;;
70169;SDS011;57543;45.442;9.212;2023-06-24T04:12:46;6.25;;;3.30;;
70169;SDS011;57543;45.442;9.212;2023-06-24T04:15:50;5.65;;;3.10;;
70169;SDS011;57543;45.442;9.212;2023-06-24T04:18:53;7.60;;;3.70;;
70169;SDS011;57543;45.442;9.212;2023-06-24T04:21:59;4.90;;;3.00;;
70169;SDS011;57543;45.442;9.212;2023-06-24T04:25:06;5.63;;;3.37;;
70169;SDS011;57543;45.442;9.212;2023-06-24T04:28:11;6.20;;;3.42;;
70169;SDS011;57543;45.442;9.212;2023-06-24T04:31:14;6.93;;;4.10;;
70169;SDS011;57543;45.442;9.212;2023-06-24T04:34:18;5.03;;;3.25;;
70169;SDS011;57543;45.442;9.212;2023-06-24T04:37:22;6.00;;;3.58;;
70169;SDS011;57543;45.442;9.212;2023-06-24T04:40:27;5.83;;;3.33;;
70169;SDS011;57543;45.442;9.212;2023-06-24T04:43:31;6.28;;;3.35;;
70169;SDS011;57543;45.442;9.212;2023-06-24T04:46:34;5.60;;;3.30;;
70169;SDS011;57543;45.442;9.212;2023-06-24T04:49:38;7.07;;;3.25;;
70169;SDS011;57543;45.442;9.212;2023-06-24T04:52:42;6.28;;;4.03;;
70169;SDS011;57543;45.442;9.212;2023-06-24T04:55:46;5.80;;;3.23;;
70169;SDS011;57543;45.442;9.212;2023-06-24T04:58:50;6.05;;;3.38;;
70169;SDS011;57543;45.442;9.212;2023-06-24T05:01:54;6.57;;;3.80;;
70169;SDS011;57543;45.442;9.212;2023-06-24T05:04:57;5.78;;;3.25;;
70169;SDS011;57543;45.442;9.212;2023-06-24T05:08:01;6.32;;;3.58;;
70169;SDS011;57543;45.442;9.212;2023-06-24T05:11:05;5.43;;;3.20;;
70169;SDS011;57543;45.442;9.212;2023-06-24T05:14:09;7.43;;;3.47;;
70169;SDS011;57543;45.442;9.212;2023-06-24T05:17:13;9.30;;;3.60;;
70169;SDS011;57543;45.442;9.212;2023-06-24T05:20:16;6.35;;;3.60;;
70169;SDS011;57543;45.442;9.212;2023-06-24T05:23:21;8.35;;;3.60;;
70169;SDS011;57543;45.442;9.212;2023-06-24T05:26:24;5.30;;;3.00;;
70169;SDS011;57543;45.442;9.212;2023-06-24T05:29:28;6.85;;;3.40;;
70169;SDS011;57543;45.442;9.212;2023-06-24T05:32:32;5.97;;;3.53;;
70169;SDS011;57543;45.442;9.212;2023-06-24T05:35:36;6.50;;;3.40;;
70169;SDS011;57543;45.442;9.212;2023-06-24T05:38:43;6.00;;;3.40;;
70169;SDS011;57543;45.442;9.212;2023-06-24T05:41:46;6.30;;;3.30;;
70169;SDS011;57543;45.442;9.212;2023-06-24T05:44:51;7.22;;;3.88;;
70169;SDS011;57543;45.442;9.212;2023-06-24T05:47:55;7.43;;;3.80;;
70169;SDS011;57543;45.442;9.212;2023-06-24T05:50:59;8.57;;;4.18;;
70169;SDS011;57543;45.442;9.212;2023-06-24T05:54:03;8.98;;;4.22;;
70169;SDS011;57543;45.442;9.212;2023-06-24T05:57:07;11.00;;;4.20;;
70169;SDS011;57543;45.442;9.212;2023-06-24T06:00:10;8.75;;;3.90;;
70169;SDS011;57543;45.442;9.212;2023-06-24T06:03:19;7.32;;;4.70;;
70169;SDS011;57543;45.442;9.212;2023-06-24T06:06:22;8.73;;;4.32;;
70169;SDS011;57543;45.442;9.212;2023-06-24T06:09:26;7.13;;;4.10;;
70169;SDS011;57543;45.442;9.212;2023-06-24T06:12:29;7.37;;;4.23;;
70169;SDS011;57543;45.442;9.212;2023-06-24T06:15:32;7.65;;;4.10;;
70169;SDS011;57543;45.442;9.212;2023-06-24T06:18:36;9.00;;;4.00;;
70169;SDS011;57543;45.442;9.212;2023-06-24T06:21:39;10.73;;;4.20;;
70169;SDS011;57543;45.442;9.212;2023-06-24T06:24:42;9.43;;;4.63;;
70169;SDS011;57543;45.442;9.212;2023-06-24T06:27:46;6.43;;;3.60;;
70169;SDS011;57543;45.442;9.212;2023-06-24T06:30:49;6.55;;;3.65;;
70169;SDS011;57543;45.442;9.212;2023-06-24T06:33:53;8.38;;;4.38;;
70169;SDS011;57543;45.442;9.212;2023-06-24T06:36:56;7.35;;;3.95;;
70169;SDS011;57543;45.442;9.212;2023-06-24T06:39:59;6.50;;;4.00;;
70169;SDS011;57543;45.442;9.212;2023-06-24T06:43:03;7.07;;;3.80;;
70169;SDS011;57543;45.442;9.212;2023-06-24T06:46:06;9.18;;;4.20;;
70169;SDS011;57543;45.442;9.212;2023-06-24T06:49:29;6.57;;;3.70;;
70169;SDS011;57543;45.442;9.212;2023-06-24T06:52:33;6.38;;;3.70;;
70169;SDS011;57543;45.442;9.212;2023-06-24T06:55:37;8.27;;;3.95;;
70169;SDS011;57543;45.442;9.212;2023-06-24T06:58:42;7.43;;;3.43;;
70169;SDS011;57543;45.442;9.212;2023-06-24T07:01:46;8.18;;;3.70;;
70169;SDS011;57543;45.442;9.212;2023-06-24T07:04:49;6.60;;;4.20;;
70169;SDS011;57543;45.442;9.212;2023-06-24T07:07:54;6.65;;;3.50;;
70169;SDS011;57543;45.442;9.212;2023-06-24T07:10:58;8.02;;;4.28;;
70169;SDS011;57543;45.442;9.212;2023-06-24T07:14:01;7.57;;;3.97;;
70169;SDS011;57543;45.442;9.212;2023-06-24T07:17:06;7.97;;;4.00;;
70169;SDS011;57543;45.442;9.212;2023-06-24T07:20:10;8.35;;;4.13;;
70169;SDS011;57543;45.442;9.212;2023-06-24T07:23:14;7.07;;;4.28;;
70169;SDS011;57543;45.442;9.212;2023-06-24T07:26:18;8.32;;;4.30;;
70169;SDS011;57543;45.442;9.212;2023-06-24T07:29:21;8.03;;;3.93;;
70169;SDS011;57543;45.442;9.212;2023-06-24T07:32:25;7.13;;;3.90;;
70169;SDS011;57543;45.442;9.212;2023-06-24T07:35:29;7.40;;;4.57;;
70169;SDS011;57543;45.442;9.212;2023-06-24T07:38:32;8.88;;;4.68;;
70169;SDS011;57543;45.442;9.212;2023-06-24T07:41:36;13.88;;;4.93;;
70169;SDS011;57543;45.442;9.212;2023-06-24T07:44:39;7.50;;;4.30;;
70169;SDS011;57543;45.442;9.212;2023-06-24T07:47:43;8.82;;;4.40;;
70169;SDS011;57543;45.442;9.212;2023-06-24T07:50:46;7.85;;;4.07;;
70169;SDS011;57543;45.442;9.212;2023-06-24T07:53:50;8.43;;;4.03;;
70169;SDS011;57543;45.442;9.212;2023-06-24T07:56:54;9.30;;;4.30;;
70169;SDS011;57543;45.442;9.212;2023-06-24T07:59:57;8.00;;;4.10;;
70169;SDS011;57543;45.442;9.212;2023-06-24T08:03:01;7.40;;;4.03;;
70169;SDS011;57543;45.442;9.212;2023-06-24T08:06:05;8.63;;;4.35;;
70169;SDS011;57543;45.442;9.212;2023-06-24T08:09:09;6.82;;;3.83;;
70169;SDS011;57543;45.442;9.212;2023-06-24T08:12:13;6.78;;;3.58;;
70169;SDS011;57543;45.442;9.212;2023-06-24T08:15:16;6.47;;;3.50;;
70169;SDS011;57543;45.442;9.212;2023-06-24T08:18:20;6.25;;;3.63;;
70169;SDS011;57543;45.442;9.212;2023-06-24T08:21:23;7.32;;;3.70;;
70169;SDS011;57543;45.442;9.212;2023-06-24T08:24:27;6.82;;;3.78;;
70169;SDS011;57543;45.442;9.212;2023-06-24T08:27:31;7.97;;;3.97;;
70169;SDS011;57543;45.442;9.212;2023-06-24T08:30:35;7.57;;;3.93;;
70169;SDS011;57543;45.442;9.212;2023-06-24T08:33:42;7.10;;;4.13;;
70169;SDS011;57543;45.442;9.212;2023-06-24T08:36:48;9.75;;;4.63;;
70169;SDS011;57543;45.442;9.212;2023-06-24T08:39:51;6.78;;;3.97;;
70169;SDS011;57543;45.442;9.212;2023-06-24T08:42:55;6.30;;;3.67;;
70169;SDS011;57543;45.442;9.212;2023-06-24T08:45:58;9.93;;;4.60;;
70169;SDS011;57543;45.442;9.212;2023-06-24T08:49:05;8.43;;;4.25;;
70169;SDS011;57543;45.442;9.212;2023-06-24T08:52:16;8.65;;;4.65;;
70169;SDS011;57543;45.442;9.212;2023-06-24T08:55:22;7.53;;;4.47;;
70169;SDS011;57543;45.442;9.212;2023-06-24T08:58:27;8.10;;;5.05;;
70169;SDS011;57543;45.442;9.212;2023-06-24T09:01:31;7.53;;;4.13;;
70169;SDS011;57543;45.442;9.212;2023-06-24T09:04:53;7.43;;;4.70;;
70169;SDS011;57543;45.442;9.212;2023-06-24T09:07:58;7.05;;;4.15;;
70169;SDS011;57543;45.442;9.212;2023-06-24T09:11:02;8.25;;;4.78;;
70169;SDS011;57543;45.442;9.212;2023-06-24T09:14:06;9.90;;;4.93;;
70169;SDS011;57543;45.442;9.212;2023-06-24T09:17:15;7.50;;;4.10;;
70169;SDS011;57543;45.442;9.212;2023-06-24T09:20:20;7.80;;;4.30;;
70169;SDS011;57543;45.442;9.212;2023-06-24T09:23:26;8.00;;;4.43;;
70169;SDS011;57543;45.442;9.212;2023-06-24T09:26:29;8.23;;;4.65;;
70169;SDS011;57543;45.442;9.212;2023-06-24T09:29:34;8.00;;;4.65;;
70169;SDS011;57543;45.442;9.212;2023-06-24T09:32:38;9.73;;;4.80;;
70169;SDS011;57543;45.442;9.212;2023-06-24T09:35:42;7.63;;;4.93;;
70169;SDS011;57543;45.442;9.212;2023-06-24T09:38:45;9.20;;;4.47;;
70169;SDS011;57543;45.442;9.212;2023-06-24T09:41:49;7.72;;;4.32;;
70169;SDS011;57543;45.442;9.212;2023-06-24T09:44:54;10.68;;;4.90;;
70169;SDS011;57543;45.442;9.212;2023-06-24T09:47:58;10.47;;;5.00;;
70169;SDS011;57543;45.442;9.212;2023-06-24T09:51:03;8.65;;;4.55;;
70169;SDS011;57543;45.442;9.212;2023-06-24T09:54:07;10.30;;;4.97;;
70169;SDS011;57543;45.442;9.212;2023-06-24T09:57:12;8.30;;;5.40;;
70169;SDS011;57543;45.442;9.212;2023-06-24T10:00:18;7.15;;;4.60;;
70169;SDS011;57543;45.442;9.212;2023-06-24T10:03:22;7.73;;;4.93;;
70169;SDS011;57543;45.442;9.212;2023-06-24T10:06:27;8.32;;;5.18;;
70169;SDS011;57543;45.442;9.212;2023-06-24T10:09:31;9.05;;;4.68;;
70169;SDS011;57543;45.442;9.212;2023-06-24T10:12:35;7.40;;;4.50;;
70169;SDS011;57543;45.442;9.212;2023-06-24T10:15:39;9.15;;;4.65;;
70169;SDS011;57543;45.442;9.212;2023-06-24T10:18:44;8.90;;;4.77;;
70169;SDS011;57543;45.442;9.212;2023-06-24T10:21:52;9.20;;;4.75;;
70169;SDS011;57543;45.442;9.212;2023-06-24T10:25:01;12.38;;;5.13;;
70169;SDS011;57543;45.442;9.212;2023-06-24T10:28:08;8.02;;;4.97;;
70169;SDS011;57543;45.442;9.212;2023-06-24T10:31:12;8.88;;;4.70;;
70169;SDS011;57543;45.442;9.212;2023-06-24T10:40:39;8.57;;;4.50;;
70169;SDS011;57543;45.442;9.212;2023-06-24T10:43:45;9.07;;;4.75;;
70169;SDS011;57543;45.442;9.212;2023-06-24T10:46:54;10.95;;;4.45;;
70169;SDS011;57543;45.442;9.212;2023-06-24T10:49:58;7.20;;;3.80;;
70169;SDS011;57543;45.442;9.212;2023-06-24T10:53:02;6.38;;;4.13;;
70169;SDS011;57543;45.442;9.212;2023-06-24T10:56:11;6.75;;;4.60;;
70169;SDS011;57543;45.442;9.212;2023-06-24T10:59:15;7.10;;;4.40;;
70169;SDS011;57543;45.442;9.212;2023-06-24T11:02:19;7.97;;;4.85;;
70169;SDS011;57543;45.442;9.212;2023-06-24T11:05:24;7.70;;;4.40;;
70169;SDS011;57543;45.442;9.212;2023-06-24T11:08:28;6.40;;;4.00;;
70169;SDS011;57543;45.442;9.212;2023-06-24T11:11:32;6.32;;;4.20;;
70169;SDS011;57543;45.442;9.212;2023-06-24T11:14:36;5.80;;;3.83;;
70169;SDS011;57543;45.442;9.212;2023-06-24T11:17:41;6.32;;;3.70;;
70169;SDS011;57543;45.442;9.212;2023-06-24T11:20:45;6.30;;;3.97;;
70169;SDS011;57543;45.442;9.212;2023-06-24T11:23:48;6.60;;;3.95;;
70169;SDS011;57543;45.442;9.212;2023-06-24T11:26:52;7.38;;;4.30;;
70169;SDS011;57543;45.442;9.212;2023-06-24T11:29:59;6.90;;;3.70;;
70169;SDS011;57543;45.442;9.212;2023-06-24T11:33:07;7.90;;;4.25;;
70169;SDS011;57543;45.442;9.212;2023-06-24T11:36:11;7.43;;;4.37;;
70169;SDS011;57543;45.442;9.212;2023-06-24T11:39:25;6.88;;;4.13;;
70169;SDS011;57543;45.442;9.212;2023-06-24T11:42:30;6.57;;;4.30;;
70169;SDS011;57543;45.442;9.212;2023-06-24T11:45:35;7.50;;;4.22;;
70169;SDS011;57543;45.442;9.212;2023-06-24T11:48:39;8.43;;;4.32;;
70169;SDS011;57543;45.442;9.212;2023-06-24T11:51:48;8.77;;;4.20;;
70169;SDS011;57543;45.442;9.212;2023-06-24T11:54:53;7.10;;;4.38;;
70169;SDS011;57543;45.442;9.212;2023-06-24T11:57:57;7.10;;;4.45;;
70169;SDS011;57543;45.442;9.212;2023-06-24T12:01:03;10.27;;;4.53;;
70169;SDS011;57543;45.442;9.212;2023-06-24T12:04:10;9.60;;;4.30;;
70169;SDS011;57543;45.442;9.212;2023-06-24T12:07:15;8.00;;;4.50;;
70169;SDS011;57543;45.442;9.212;2023-06-24T12:10:19;6.93;;;4.22;;
70169;SDS011;57543;45.442;9.212;2023-06-24T12:36:40;9.02;;;4.72;;
70169;SDS011;57543;45.442;9.212;2023-06-24T12:39:44;7.72;;;4.65;;
70169;SDS011;57543;45.442;9.212;2023-06-24T12:42:48;8.15;;;4.55;;
70169;SDS011;57543;45.442;9.212;2023-06-24T12:45:52;7.35;;;4.60;;
70169;SDS011;57543;45.442;9.212;2023-06-24T12:48:58;9.02;;;4.70;;
70169;SDS011;57543;45.442;9.212;2023-06-24T12:52:05;7.43;;;4.57;;
70169;SDS011;57543;45.442;9.212;2023-06-24T12:55:10;8.20;;;4.70;;
70169;SDS011;57543;45.442;9.212;2023-06-24T12:58:18;8.57;;;4.25;;
70169;SDS011;57543;45.442;9.212;2023-06-24T13:01:23;7.10;;;4.57;;
70169;SDS011;57543;45.442;9.212;2023-06-24T13:04:26;7.60;;;4.85;;
70169;SDS011;57543;45.442;9.212;2023-06-24T13:07:30;7.18;;;4.60;;
70169;SDS011;57543;45.442;9.212;2023-06-24T13:10:34;9.00;;;4.47;;
70169;SDS011;57543;45.442;9.212;2023-06-24T13:13:38;7.07;;;4.57;;
70169;SDS011;57543;45.442;9.212;2023-06-24T13:16:42;7.38;;;4.75;;
70169;SDS011;57543;45.442;9.212;2023-06-24T13:19:45;8.82;;;5.15;;
70169;SDS011;57543;45.442;9.212;2023-06-24T13:22:49;8.02;;;4.30;;
70169;SDS011;57543;45.442;9.212;2023-06-24T13:25:52;8.85;;;4.13;;
70169;SDS011;57543;45.442;9.212;2023-06-24T13:28:56;9.43;;;4.95;;
70169;SDS011;57543;45.442;9.212;2023-06-24T13:32:00;6.35;;;4.68;;
70169;SDS011;57543;45.442;9.212;2023-06-24T13:35:05;7.53;;;4.70;;
70169;SDS011;57543;45.442;9.212;2023-06-24T13:38:09;9.98;;;5.00;;
70169;SDS011;57543;45.442;9.212;2023-06-24T13:41:12;7.75;;;4.85;;
70169;SDS011;57543;45.442;9.212;2023-06-24T13:44:16;6.88;;;4.18;;
70169;SDS011;57543;45.442;9.212;2023-06-24T13:47:20;8.95;;;4.95;;
70169;SDS011;57543;45.442;9.212;2023-06-24T13:50:23;7.05;;;4.55;;
70169;SDS011;57543;45.442;9.212;2023-06-24T13:53:27;7.72;;;4.47;;
70169;SDS011;57543;45.442;9.212;2023-06-24T13:56:30;7.22;;;4.30;;
70169;SDS011;57543;45.442;9.212;2023-06-24T13:59:34;6.60;;;4.18;;
70169;SDS011;57543;45.442;9.212;2023-06-24T14:02:38;7.95;;;4.47;;
70169;SDS011;57543;45.442;9.212;2023-06-24T14:05:42;9.48;;;4.85;;
70169;SDS011;57543;45.442;9.212;2023-06-24T14:08:45;8.07;;;4.80;;
70169;SDS011;57543;45.442;9.212;2023-06-24T14:11:49;9.93;;;4.30;;
70169;SDS011;57543;45.442;9.212;2023-06-24T14:14:54;7.45;;;4.47;;
70169;SDS011;57543;45.442;9.212;2023-06-24T14:17:58;6.55;;;4.00;;
70169;SDS011;57543;45.442;9.212;2023-06-24T14:21:01;6.95;;;4.20;;
70169;SDS011;57543;45.442;9.212;2023-06-24T14:24:06;11.00;;;4.00;;
70169;SDS011;57543;45.442;9.212;2023-06-24T14:27:13;7.18;;;4.43;;
70169;SDS011;57543;45.442;9.212;2023-06-24T14:30:17;7.82;;;4.00;;
70169;SDS011;57543;45.442;9.212;2023-06-24T14:33:21;7.30;;;4.15;;
70169;SDS011;57543;45.442;9.212;2023-06-24T14:36:25;6.80;;;4.35;;
70169;SDS011;57543;45.442;9.212;2023-06-24T14:39:28;8.10;;;4.20;;
70169;SDS011;57543;45.442;9.212;2023-06-24T14:42:33;7.30;;;4.10;;
70169;SDS011;57543;45.442;9.212;2023-06-24T14:45:40;7.55;;;4.60;;
70169;SDS011;57543;45.442;9.212;2023-06-24T14:48:46;6.75;;;4.40;;
70169;SDS011;57543;45.442;9.212;2023-06-24T14:51:51;7.18;;;4.65;;
70169;SDS011;57543;45.442;9.212;2023-06-24T14:54:55;6.68;;;4.40;;
70169;SDS011;57543;45.442;9.212;2023-06-24T14:57:58;7.55;;;3.92;;
70169;SDS011;57543;45.442;9.212;2023-06-24T15:01:02;6.80;;;4.30;;
70169;SDS011;57543;45.442;9.212;2023-06-24T15:04:06;7.80;;;4.45;;
70169;SDS011;57543;45.442;9.212;2023-06-24T15:07:09;6.03;;;4.07;;
70169;SDS011;57543;45.442;9.212;2023-06-24T15:10:13;8.32;;;4.35;;
70169;SDS011;57543;45.442;9.212;2023-06-24T15:13:16;7.40;;;4.30;;
70169;SDS011;57543;45.442;9.212;2023-06-24T15:16:20;7.47;;;4.07;;
70169;SDS011;57543;45.442;9.212;2023-06-24T15:19:23;8.60;;;4.47;;
70169;SDS011;57543;45.442;9.212;2023-06-24T15:22:27;6.85;;;4.60;;
70169;SDS011;57543;45.442;9.212;2023-06-24T15:25:31;7.25;;;4.10;;
70169;SDS011;57543;45.442;9.212;2023-06-24T15:28:34;6.93;;;4.20;;
70169;SDS011;57543;45.442;9.212;2023-06-24T15:31:37;8.40;;;4.55;;
70169;SDS011;57543;45.442;9.212;2023-06-24T15:34:41;6.45;;;4.32;;
70169;SDS011;57543;45.442;9.212;2023-06-24T15:37:44;6.43;;;4.00;;
70169;SDS011;57543;45.442;9.212;2023-06-24T15:40:48;7.73;;;4.00;;
70169;SDS011;57543;45.442;9.212;2023-06-24T15:43:51;7.38;;;4.22;;
70169;SDS011;57543;45.442;9.212;2023-06-24T15:46:55;9.07;;;4.47;;
70169;SDS011;57543;45.442;9.212;2023-06-24T15:49:59;6.57;;;4.40;;
70169;SDS011;57543;45.442;9.212;2023-06-24T15:53:03;6.88;;;4.30;;
70169;SDS011;57543;45.442;9.212;2023-06-24T15:56:06;8.63;;;4.40;;
70169;SDS011;57543;45.442;9.212;2023-06-24T15:59:10;8.45;;;4.22;;
70169;SDS011;57543;45.442;9.212;2023-06-24T16:02:14;6.75;;;4.38;;
70169;SDS011;57543;45.442;9.212;2023-06-24T16:05:18;6.22;;;4.07;;
70169;SDS011;57543;45.442;9.212;2023-06-24T16:08:24;6.20;;;4.18;;
70169;SDS011;57543;45.442;9.212;2023-06-24T16:11:29;6.65;;;4.05;;
70169;SDS011;57543;45.442;9.212;2023-06-24T16:14:33;5.97;;;3.85;;
70169;SDS011;57543;45.442;9.212;2023-06-24T16:17:36;6.95;;;4.10;;
70169;SDS011;57543;45.442;9.212;2023-06-24T16:20:40;6.50;;;3.95;;
70169;SDS011;57543;45.442;9.212;2023-06-24T16:23:43;5.90;;;3.72;;
70169;SDS011;57543;45.442;9.212;2023-06-24T16:26:46;6.75;;;4.10;;
70169;SDS011;57543;45.442;9.212;2023-06-24T16:29:50;6.55;;;3.97;;
70169;SDS011;57543;45.442;9.212;2023-06-24T16:32:53;7.20;;;4.10;;
70169;SDS011;57543;45.442;9.212;2023-06-24T16:35:57;5.93;;;3.97;;
70169;SDS011;57543;45.442;9.212;2023-06-24T16:39:01;7.30;;;4.20;;
70169;SDS011;57543;45.442;9.212;2023-06-24T16:42:05;7.17;;;4.10;;
70169;SDS011;57543;45.442;9.212;2023-06-24T16:45:09;6.65;;;3.80;;
70169;SDS011;57543;45.442;9.212;2023-06-24T16:48:13;8.05;;;3.97;;
70169;SDS011;57543;45.442;9.212;2023-06-24T16:51:17;7.03;;;3.80;;
70169;SDS011;57543;45.442;9.212;2023-06-24T16:54:21;6.32;;;3.85;;
70169;SDS011;57543;45.442;9.212;2023-06-24T16:57:25;7.72;;;4.07;;
70169;SDS011;57543;45.442;9.212;2023-06-24T17:00:28;6.05;;;3.67;;
70169;SDS011;57543;45.442;9.212;2023-06-24T17:03:32;7.22;;;3.60;;
70169;SDS011;57543;45.442;9.212;2023-06-24T17:06:35;7.80;;;3.88;;
70169;SDS011;57543;45.442;9.212;2023-06-24T17:09:42;8.18;;;4.00;;
70169;SDS011;57543;45.442;9.212;2023-06-24T17:12:45;7.97;;;3.80;;
70169;SDS011;57543;45.442;9.212;2023-06-24T17:15:48;7.00;;;3.97;;
70169;SDS011;57543;45.442;9.212;2023-06-24T17:18:52;5.63;;;3.38;;
70169;SDS011;57543;45.442;9.212;2023-06-24T17:21:55;6.70;;;3.80;;
70169;SDS011;57543;45.442;9.212;2023-06-24T17:24:59;5.18;;;3.90;;
70169;SDS011;57543;45.442;9.212;2023-06-24T17:28:02;6.43;;;3.20;;
70169;SDS011;57543;45.442;9.212;2023-06-24T17:31:06;9.32;;;4.20;;
70169;SDS011;57543;45.442;9.212;2023-06-24T17:34:10;5.18;;;3.10;;
70169;SDS011;57543;45.442;9.212;2023-06-24T17:37:14;5.47;;;2.95;;
70169;SDS011;57543;45.442;9.212;2023-06-24T17:40:18;8.75;;;2.92;;
70169;SDS011;57543;45.442;9.212;2023-06-24T17:43:22;6.05;;;3.15;;
70169;SDS011;57543;45.442;9.212;2023-06-24T17:46:25;5.45;;;3.13;;
70169;SDS011;57543;45.442;9.212;2023-06-24T17:49:29;6.28;;;3.10;;
70169;SDS011;57543;45.442;9.212;2023-06-24T17:52:37;6.93;;;2.85;;
70169;SDS011;57543;45.442;9.212;2023-06-24T17:55:40;8.02;;;3.35;;
70169;SDS011;57543;45.442;9.212;2023-06-24T17:58:44;7.70;;;3.70;;
70169;SDS011;57543;45.442;9.212;2023-06-24T18:01:47;7.03;;;3.00;;
70169;SDS011;57543;45.442;9.212;2023-06-24T18:04:51;6.38;;;3.30;;
70169;SDS011;57543;45.442;9.212;2023-06-24T18:07:55;6.30;;;3.25;;
70169;SDS011;57543;45.442;9.212;2023-06-24T18:10:58;6.63;;;3.28;;
70169;SDS011;57543;45.442;9.212;2023-06-24T18:14:02;5.03;;;3.10;;
70169;SDS011;57543;45.442;9.212;2023-06-24T18:17:06;5.35;;;3.08;;
70169;SDS011;57543;45.442;9.212;2023-06-24T18:20:09;7.65;;;3.25;;
70169;SDS011;57543;45.442;9.212;2023-06-24T18:23:13;6.85;;;2.95;;
70169;SDS011;57543;45.442;9.212;2023-06-24T18:26:17;5.88;;;3.20;;
70169;SDS011;57543;45.442;9.212;2023-06-24T18:29:21;5.28;;;3.40;;
70169;SDS011;57543;45.442;9.212;2023-06-24T18:32:24;5.80;;;3.33;;
70169;SDS011;57543;45.442;9.212;2023-06-24T18:35:27;8.13;;;3.78;;
70169;SDS011;57543;45.442;9.212;2023-06-24T18:38:31;6.32;;;3.22;;
70169;SDS011;57543;45.442;9.212;2023-06-24T18:41:35;5.65;;;3.83;;
70169;SDS011;57543;45.442;9.212;2023-06-24T18:44:39;6.00;;;3.22;;
70169;SDS011;57543;45.442;9.212;2023-06-24T18:47:43;5.88;;;3.38;;
70169;SDS011;57543;45.442;9.212;2023-06-24T18:50:47;6.00;;;3.35;;
70169;SDS011;57543;45.442;9.212;2023-06-24T18:53:51;6.68;;;3.17;;
70169;SDS011;57543;45.442;9.212;2023-06-24T18:56:54;5.63;;;2.97;;
70169;SDS011;57543;45.442;9.212;2023-06-24T18:59:58;5.40;;;3.20;;
70169;SDS011;57543;45.442;9.212;2023-06-24T19:03:01;5.78;;;3.10;;
70169;SDS011;57543;45.442;9.212;2023-06-24T19:06:05;4.63;;;2.97;;